Time;durP1;ratioP1;P1;durP2;ratioP2;P2;SDS_P1;SDS_P2;PMS_P1;PMS_P2;Temp;Humidity;BMP_temperature;BMP_pressure;BME280_temperature;BME280_humidity;BME280_pressure;Samples;Min_cycle;Max_cycle;Signal;HPM_P1;HPM_P2
2022/10/14 00:01:29;;;;;;;50.50;15.13;;;;;;;;;;5075307;28;20286;-71
2022/10/14 00:03:55;;;;;;;74.80;15.90;;;;;;;;;;5075213;28;20282;-71
2022/10/14 00:06:23;;;;;;;87.70;16.20;;;;;;;;;;5075656;28;20291;-72
2022/10/14 00:08:49;;;;;;;68.27;15.70;;;;;;;;;;5075154;28;20279;-72
2022/10/14 00:11:26;;;;;;;106.00;14.83;;;;;;;;;;5075575;28;20380;-72
2022/10/14 00:13:56;;;;;;;148.67;14.23;;;;;;;;;;5075485;28;20306;-72
2022/10/14 00:16:26;;;;;;;134.33;14.50;;;;;;;;;;5075084;28;20326;-71
2022/10/14 00:18:53;;;;;;;73.73;12.17;;;;;;;;;;5057669;28;20783;-72
2022/10/14 00:21:19;;;;;;;135.73;12.00;;;;;;;;;;5075035;28;20627;-72
2022/10/14 00:23:45;;;;;;;181.60;12.43;;;;;;;;;;5075163;28;20294;-72
2022/10/14 00:26:44;;;;;;;119.07;10.73;;;;;;;;;;5074858;28;20332;-71
2022/10/14 00:29:16;;;;;;;225.33;13.20;;;;;;;;;;5020203;28;20318;-71
2022/10/14 00:31:42;;;;;;;95.57;10.60;;;;;;;;;;5074852;28;20366;-71
2022/10/14 00:34:11;;;;;;;70.97;10.73;;;;;;;;;;5075449;28;20295;-71
2022/10/14 00:36:38;;;;;;;115.40;11.30;;;;;;;;;;5056797;28;20294;-71
2022/10/14 00:39:04;;;;;;;152.03;12.20;;;;;;;;;;5057754;28;20291;-72
2022/10/14 00:41:32;;;;;;;109.63;11.33;;;;;;;;;;5074578;28;20345;-71
2022/10/14 00:44:07;;;;;;;315.97;16.77;;;;;;;;;;5074611;28;20279;-72
2022/10/14 00:46:33;;;;;;;229.93;14.00;;;;;;;;;;5074629;28;20283;-71
2022/10/14 00:49:01;;;;;;;44.83;11.13;;;;;;;;;;5074419;28;20377;-72
2022/10/14 00:51:28;;;;;;;72.13;11.33;;;;;;;;;;5074399;28;20750;-72
2022/10/14 00:53:54;;;;;;;55.67;11.37;;;;;;;;;;5074294;28;20302;-72
2022/10/14 00:56:24;;;;;;;83.77;13.33;;;;;;;;;;5074324;28;20274;-71
2022/10/14 00:58:50;;;;;;;59.70;11.90;;;;;;;;;;5074233;28;20790;-71
2022/10/14 01:01:16;;;;;;;67.07;12.20;;;;;;;;;;5040246;28;20329;-71
2022/10/14 01:03:42;;;;;;;52.00;11.97;;;;;;;;;;5074255;28;20405;-71
2022/10/14 01:06:08;;;;;;;48.53;12.63;;;;;;;;;;5074614;28;20421;-71
2022/10/14 01:08:35;;;;;;;32.30;12.07;;;;;;;;;;5074642;28;20278;-71
2022/10/14 01:11:04;;;;;;;39.03;12.70;;;;;;;;;;5074035;28;20287;-72
2022/10/14 01:13:30;;;;;;;66.33;12.83;;;;;;;;;;5074118;28;20326;-71
2022/10/14 01:15:59;;;;;;;44.23;13.67;;;;;;;;;;5074409;28;20298;-72
2022/10/14 01:18:44;;;;;;;59.97;13.83;;;;;;;;;;5073975;28;20287;-72
2022/10/14 01:21:35;;;;;;;67.97;13.20;;;;;;;;;;5056205;28;20418;-71
2022/10/14 01:24:10;;;;;;;56.43;14.40;;;;;;;;;;5073796;28;20610;-72
2022/10/14 01:26:42;;;;;;;46.03;16.27;;;;;;;;;;5074164;28;20287;-71
2022/10/14 01:29:31;;;;;;;71.53;16.10;;;;;;;;;;5073452;28;20532;-71
2022/10/14 01:32:02;;;;;;;179.73;18.90;;;;;;;;;;5054538;28;20327;-72
2022/10/14 01:34:33;;;;;;;212.40;19.67;;;;;;;;;;5073646;28;20298;-71
2022/10/14 01:37:02;;;;;;;92.20;16.23;;;;;;;;;;5073940;28;20374;-71
2022/10/14 01:39:35;;;;;;;77.73;16.23;;;;;;;;;;5074142;28;20370;-71
2022/10/14 01:42:08;;;;;;;110.77;15.83;;;;;;;;;;5073496;28;20374;-72
2022/10/14 01:44:36;;;;;;;248.17;20.23;;;;;;;;;;5073784;28;20274;-71
2022/10/14 01:47:02;;;;;;;258.83;19.33;;;;;;;;;;5073305;28;20290;-71
2022/10/14 01:49:31;;;;;;;219.53;16.97;;;;;;;;;;5073502;28;20604;-71
2022/10/14 01:52:21;;;;;;;244.17;17.20;;;;;;;;;;5074226;28;20365;-71
2022/10/14 01:54:49;;;;;;;141.80;16.93;;;;;;;;;;5060532;28;20311;-71
2022/10/14 01:57:18;;;;;;;179.50;17.27;;;;;;;;;;5073278;28;20289;-71
2022/10/14 01:59:45;;;;;;;134.90;16.30;;;;;;;;;;5073302;28;20370;-71
2022/10/14 02:02:12;;;;;;;83.57;15.47;;;;;;;;;;5073177;28;20400;-71
2022/10/14 02:04:38;;;;;;;200.37;15.40;;;;;;;;;;5073191;28;20283;-71
2022/10/14 02:07:11;;;;;;;162.93;17.70;;;;;;;;;;5073107;28;20613;-71
2022/10/14 02:09:37;;;;;;;220.87;17.97;;;;;;;;;;5074004;28;20279;-71
2022/10/14 02:12:03;;;;;;;144.10;16.03;;;;;;;;;;5055506;28;20333;-72
2022/10/14 02:14:48;;;;;;;122.80;16.07;;;;;;;;;;5073689;28;20295;-71
2022/10/14 02:17:21;;;;;;;97.97;15.57;;;;;;;;;;5073145;28;20285;-71
2022/10/14 02:19:53;;;;;;;45.40;13.17;;;;;;;;;;5056330;28;20062;-71
2022/10/14 02:22:24;;;;;;;62.50;13.20;;;;;;;;;;5056248;28;20291;-71
2022/10/14 02:24:52;;;;;;;87.40;13.80;;;;;;;;;;5074759;28;20642;-71
2022/10/14 02:27:19;;;;;;;112.00;15.60;;;;;;;;;;5076969;28;20351;-71
2022/10/14 02:29:46;;;;;;;189.10;14.90;;;;;;;;;;5077568;28;20286;-71
2022/10/14 02:32:14;;;;;;;61.83;12.07;;;;;;;;;;5076976;28;20286;-71
2022/10/14 02:34:41;;;;;;;77.90;11.80;;;;;;;;;;5076908;28;20303;-71
2022/10/14 02:37:08;;;;;;;37.63;11.00;;;;;;;;;;5059300;28;20833;-71
2022/10/14 02:39:39;;;;;;;54.37;11.27;;;;;;;;;;5077459;28;20619;-71
2022/10/14 02:42:06;;;;;;;151.97;11.73;;;;;;;;;;5077603;28;20294;-72
2022/10/14 02:44:32;;;;;;;74.43;10.10;;;;;;;;;;5076959;28;20281;-71
2022/10/14 02:46:58;;;;;;;37.87;10.00;;;;;;;;;;5076824;28;20333;-71
2022/10/14 02:49:24;;;;;;;119.40;10.83;;;;;;;;;;5076763;28;20286;-71
2022/10/14 02:51:50;;;;;;;46.80;9.67;;;;;;;;;;5077425;28;20294;-71
2022/10/14 02:54:16;;;;;;;27.10;9.23;;;;;;;;;;5059227;28;20310;-71
2022/10/14 02:56:42;;;;;;;31.30;9.73;;;;;;;;;;5059016;28;20344;-71
2022/10/14 02:59:09;;;;;;;54.57;10.47;;;;;;;;;;5058916;28;20378;-72
2022/10/14 03:01:35;;;;;;;34.00;9.73;;;;;;;;;;5076764;28;20286;-71
2022/10/14 03:04:01;;;;;;;44.40;9.47;;;;;;;;;;5076404;28;20362;-71
2022/10/14 03:06:27;;;;;;;44.07;9.97;;;;;;;;;;5076053;28;20764;-71
2022/10/14 03:08:53;;;;;;;46.17;9.60;;;;;;;;;;5076345;28;20362;-71
2022/10/14 03:11:19;;;;;;;35.83;9.63;;;;;;;;;;5076770;28;20725;-71
2022/10/14 03:13:45;;;;;;;37.97;10.47;;;;;;;;;;5076222;28;20283;-71
2022/10/14 03:16:11;;;;;;;79.17;11.87;;;;;;;;;;5076571;28;20383;-72
2022/10/14 03:18:37;;;;;;;71.93;11.43;;;;;;;;;;5076129;28;20290;-71
2022/10/14 03:21:03;;;;;;;53.00;10.67;;;;;;;;;;5076249;28;20283;-71
2022/10/14 03:23:29;;;;;;;36.60;10.50;;;;;;;;;;5076593;28;20307;-71
2022/10/14 03:25:55;;;;;;;28.90;10.57;;;;;;;;;;5058434;28;20639;-71
2022/10/14 03:28:21;;;;;;;28.43;10.83;;;;;;;;;;5075559;28;20299;-71
2022/10/14 03:30:48;;;;;;;23.83;11.17;;;;;;;;;;5058418;28;20376;-71
2022/10/14 03:33:14;;;;;;;29.80;11.00;;;;;;;;;;5057920;28;20291;-72
2022/10/14 03:35:40;;;;;;;23.63;10.67;;;;;;;;;;5057793;28;20372;-71
2022/10/14 03:38:06;;;;;;;86.77;13.27;;;;;;;;;;5058088;28;20318;-71
2022/10/14 03:40:32;;;;;;;26.43;11.87;;;;;;;;;;5075748;28;20282;-71
2022/10/14 03:43:00;;;;;;;36.00;12.30;;;;;;;;;;5076604;28;20623;-71
2022/10/14 03:45:27;;;;;;;69.90;13.90;;;;;;;;;;5075721;28;20282;-71
2022/10/14 03:47:53;;;;;;;23.37;12.23;;;;;;;;;;5075802;28;20320;-71
2022/10/14 03:50:19;;;;;;;23.73;11.53;;;;;;;;;;5075666;28;20333;-72
2022/10/14 03:52:45;;;;;;;20.43;12.13;;;;;;;;;;5075879;28;20742;-71
2022/10/14 03:55:11;;;;;;;39.90;13.00;;;;;;;;;;5075511;28;20305;-71
2022/10/14 03:57:38;;;;;;;40.20;14.07;;;;;;;;;;5075800;28;20274;-71
2022/10/14 04:00:04;;;;;;;80.87;14.53;;;;;;;;;;5075458;28;20852;-71
2022/10/14 04:02:30;;;;;;;106.20;16.27;;;;;;;;;;5057724;28;20762;-71
2022/10/14 04:04:56;;;;;;;36.83;14.30;;;;;;;;;;5075423;28;20751;-71
2022/10/14 04:07:23;;;;;;;45.13;15.53;;;;;;;;;;5075213;28;20780;-71
2022/10/14 04:09:49;;;;;;;138.83;17.50;;;;;;;;;;5075837;28;20366;-71
2022/10/14 04:12:15;;;;;;;42.17;14.27;;;;;;;;;;5057565;28;20286;-75
2022/10/14 04:14:41;;;;;;;69.40;15.07;;;;;;;;;;5075332;28;20294;-71
2022/10/14 04:17:07;;;;;;;70.47;15.50;;;;;;;;;;5041315;28;20374;-71
2022/10/14 04:19:33;;;;;;;34.20;14.20;;;;;;;;;;5075018;28;20286;-71
2022/10/14 04:21:59;;;;;;;39.47;15.07;;;;;;;;;;5075059;28;20283;-71
2022/10/14 04:24:25;;;;;;;23.87;14.53;;;;;;;;;;5057559;28;20297;-72
2022/10/14 04:26:51;;;;;;;54.33;16.37;;;;;;;;;;5074934;28;20314;-71
2022/10/14 04:29:18;;;;;;;31.80;15.20;;;;;;;;;;5075284;28;20290;-72
2022/10/14 04:31:44;;;;;;;66.63;17.53;;;;;;;;;;5074745;28;20291;-71
2022/10/14 04:34:11;;;;;;;34.93;15.77;;;;;;;;;;5074677;28;20305;-71
2022/10/14 04:36:37;;;;;;;61.47;17.27;;;;;;;;;;5040316;28;20299;-71
2022/10/14 04:39:04;;;;;;;41.47;16.17;;;;;;;;;;5056783;28;20286;-71
2022/10/14 04:41:31;;;;;;;40.83;16.97;;;;;;;;;;5074571;28;20750;-71
2022/10/14 04:43:57;;;;;;;42.60;16.00;;;;;;;;;;5074540;28;20739;-71
2022/10/14 04:46:23;;;;;;;43.43;15.87;;;;;;;;;;5074747;28;20285;-71
2022/10/14 04:48:49;;;;;;;64.63;14.97;;;;;;;;;;5056228;28;20836;-71
2022/10/14 04:51:15;;;;;;;123.03;18.40;;;;;;;;;;5074345;28;20290;-71
2022/10/14 04:53:41;;;;;;;157.90;19.60;;;;;;;;;;5056523;28;20283;-71
2022/10/14 04:56:07;;;;;;;45.60;16.10;;;;;;;;;;5074855;28;20670;-71
2022/10/14 04:58:34;;;;;;;29.47;16.47;;;;;;;;;;5056698;28;20295;-71
2022/10/14 05:01:00;;;;;;;78.00;17.40;;;;;;;;;;5074242;28;20279;-71
2022/10/14 05:03:26;;;;;;;32.03;16.87;;;;;;;;;;5074038;28;20289;-71
2022/10/14 05:05:52;;;;;;;97.97;17.37;;;;;;;;;;5074771;28;20278;-71
2022/10/14 05:08:18;;;;;;;33.40;16.20;;;;;;;;;;5073959;28;20279;-71
2022/10/14 05:10:44;;;;;;;89.00;17.57;;;;;;;;;;5073967;28;20642;-71
2022/10/14 05:13:10;;;;;;;74.30;17.17;;;;;;;;;;5057116;28;20299;-71
2022/10/14 05:15:36;;;;;;;115.00;16.00;;;;;;;;;;5074342;28;20829;-71
2022/10/14 05:18:02;;;;;;;57.23;16.30;;;;;;;;;;5073935;28;20283;-71
2022/10/14 05:20:28;;;;;;;68.13;16.13;;;;;;;;;;5073870;28;20283;-71
2022/10/14 05:22:54;;;;;;;80.67;17.60;;;;;;;;;;5073812;28;20283;-71
2022/10/14 05:25:20;;;;;;;87.33;15.50;;;;;;;;;;5073740;28;20293;-71
2022/10/14 05:27:46;;;;;;;88.00;16.10;;;;;;;;;;5073682;28;20287;-71
2022/10/14 05:30:13;;;;;;;79.07;16.13;;;;;;;;;;5073672;28;20340;-71
2022/10/14 05:32:39;;;;;;;345.83;21.73;;;;;;;;;;5073681;28;20325;-72
2022/10/14 05:35:05;;;;;;;93.50;17.80;;;;;;;;;;5073633;28;20341;-71
2022/10/14 05:37:31;;;;;;;54.53;16.43;;;;;;;;;;5074090;28;20287;-72
2022/10/14 05:39:57;;;;;;;129.40;17.93;;;;;;;;;;5074343;28;20283;-71
2022/10/14 05:42:23;;;;;;;40.70;16.30;;;;;;;;;;5074240;28;20326;-71
2022/10/14 05:44:49;;;;;;;63.67;17.33;;;;;;;;;;5073422;28;20279;-71
2022/10/14 05:47:16;;;;;;;67.90;16.77;;;;;;;;;;5073506;28;20278;-71
2022/10/14 05:49:42;;;;;;;200.07;20.93;;;;;;;;;;5073904;28;20318;-71
2022/10/14 05:52:08;;;;;;;197.90;20.60;;;;;;;;;;5055928;28;20295;-71
2022/10/14 05:54:34;;;;;;;178.77;18.93;;;;;;;;;;5073350;28;20303;-71
2022/10/14 05:57:00;;;;;;;170.63;18.47;;;;;;;;;;5073296;28;20290;-71
2022/10/14 05:59:28;;;;;;;42.83;17.27;;;;;;;;;;5055531;28;20778;-71
2022/10/14 06:01:55;;;;;;;38.17;16.57;;;;;;;;;;5073247;28;20389;-71
2022/10/14 06:04:21;;;;;;;60.33;17.70;;;;;;;;;;5073238;28;20869;-71
2022/10/14 06:06:47;;;;;;;40.43;17.20;;;;;;;;;;5073730;28;20374;-71
2022/10/14 06:09:13;;;;;;;70.60;18.07;;;;;;;;;;5055606;28;20348;-71
2022/10/14 06:11:40;;;;;;;50.77;19.13;;;;;;;;;;5055442;28;20289;-71
2022/10/14 06:14:06;;;;;;;30.53;16.37;;;;;;;;;;5055375;28;20356;-71
2022/10/14 06:16:32;;;;;;;45.33;19.40;;;;;;;;;;5073047;28;20793;-72
2022/10/14 06:18:58;;;;;;;49.67;19.23;;;;;;;;;;5055472;28;20291;-71
2022/10/14 06:21:25;;;;;;;86.43;18.37;;;;;;;;;;5073489;28;20286;-71
2022/10/14 06:23:51;;;;;;;126.17;18.67;;;;;;;;;;5055341;28;20286;-71
2022/10/14 06:26:17;;;;;;;159.30;19.60;;;;;;;;;;5073048;28;20318;-71
2022/10/14 06:28:43;;;;;;;40.43;16.83;;;;;;;;;;5073154;28;20405;-71
2022/10/14 06:31:09;;;;;;;62.87;16.80;;;;;;;;;;5055307;28;20723;-71
2022/10/14 06:33:36;;;;;;;89.17;17.97;;;;;;;;;;5072944;28;20348;-72
2022/10/14 06:36:03;;;;;;;124.33;18.80;;;;;;;;;;5073618;28;20384;-71
2022/10/14 06:38:29;;;;;;;64.33;15.57;;;;;;;;;;5055795;28;20607;-71
2022/10/14 06:40:55;;;;;;;37.90;15.10;;;;;;;;;;5055244;28;20304;-71
2022/10/14 06:43:22;;;;;;;90.73;15.57;;;;;;;;;;5038723;28;20310;-71
2022/10/14 06:45:48;;;;;;;67.10;15.17;;;;;;;;;;5073578;28;20297;-71
2022/10/14 06:48:14;;;;;;;46.47;14.83;;;;;;;;;;5072914;28;20282;-71
2022/10/14 06:50:41;;;;;;;29.93;14.50;;;;;;;;;;5055487;28;20291;-71
2022/10/14 06:53:07;;;;;;;22.87;13.17;;;;;;;;;;5072450;28;20786;-71
2022/10/14 06:55:33;;;;;;;42.30;14.87;;;;;;;;;;5073169;28;20303;-75
2022/10/14 06:57:59;;;;;;;49.47;15.03;;;;;;;;;;5072867;28;20274;-71
2022/10/14 07:00:25;;;;;;;47.77;14.27;;;;;;;;;;5039113;28;20581;-71
2022/10/14 07:02:51;;;;;;;27.40;14.97;;;;;;;;;;5073519;28;20301;-71
2022/10/14 07:05:18;;;;;;;34.67;15.03;;;;;;;;;;5055102;28;20290;-71
2022/10/14 07:07:44;;;;;;;19.87;13.30;;;;;;;;;;5055549;28;20359;-71
2022/10/14 07:10:10;;;;;;;21.67;15.23;;;;;;;;;;5073183;28;20283;-71
2022/10/14 07:12:36;;;;;;;26.20;14.03;;;;;;;;;;5076994;28;20286;-72
2022/10/14 07:15:03;;;;;;;31.30;15.70;;;;;;;;;;5076282;28;20295;-71
2022/10/14 07:17:29;;;;;;;48.40;16.57;;;;;;;;;;5076903;28;20310;-71
2022/10/14 07:19:55;;;;;;;36.93;15.50;;;;;;;;;;5076124;28;20311;-71
2022/10/14 07:22:21;;;;;;;23.23;14.97;;;;;;;;;;5076571;28;20340;-71
2022/10/14 07:24:47;;;;;;;26.00;15.73;;;;;;;;;;5076486;28;20283;-74
2022/10/14 07:27:19;;;;;;;29.07;15.43;;;;;;;;;;5058069;28;20295;-71
2022/10/14 07:29:45;;;;;;;31.13;17.13;;;;;;;;;;5076162;28;20826;-71
2022/10/14 07:32:11;;;;;;;36.30;16.87;;;;;;;;;;5075819;28;20279;-71
2022/10/14 07:34:37;;;;;;;43.23;18.10;;;;;;;;;;5057951;28;20766;-71
2022/10/14 07:37:03;;;;;;;35.13;17.20;;;;;;;;;;5076569;28;20284;-71
2022/10/14 07:39:29;;;;;;;33.10;17.70;;;;;;;;;;5075772;28;20281;-72
2022/10/14 07:41:55;;;;;;;27.23;18.50;;;;;;;;;;5075471;28;20759;-72
2022/10/14 07:44:21;;;;;;;28.77;18.07;;;;;;;;;;5058823;28;20301;-72
2022/10/14 07:46:48;;;;;;;33.40;17.83;;;;;;;;;;5075638;28;20295;-73
2022/10/14 07:49:15;;;;;;;28.57;17.90;;;;;;;;;;5058001;28;20299;-72
2022/10/14 07:51:42;;;;;;;30.47;18.37;;;;;;;;;;5075604;28;20293;-73
2022/10/14 07:54:12;;;;;;;31.63;17.67;;;11.40;99.90;;;;;;5075520;28;20291;-72
2022/10/14 07:56:40;;;;;;;28.77;18.10;;;11.30;99.90;;;;;;5075860;28;20275;-72
2022/10/14 07:59:06;;;;;;;26.57;17.70;;;11.30;99.90;;;;;;5075563;28;20286;-72
2022/10/14 08:01:32;;;;;;;30.27;19.30;;;11.30;99.90;;;;;;5040965;28;20291;-73
2022/10/14 08:03:57;;;;;;;32.27;20.20;;;11.30;99.90;;;;;;5075375;28;20497;-73
2022/10/14 08:06:23;;;;;;;27.70;19.20;;;11.30;99.90;;;;;;5075653;28;20127;-73
2022/10/14 08:08:49;;;;;;;28.37;19.03;;;11.30;99.90;;;;;;5058208;28;20453;-72
2022/10/14 08:11:24;;;;;;;27.57;18.97;;;11.40;99.90;;;;;;5075852;28;20376;-72
2022/10/14 08:13:50;;;;;;;24.48;18.08;;;11.40;99.90;;;;;;5076080;28;20270;-73
2022/10/14 08:16:28;;;;;;;21.67;15.93;;;11.40;99.90;;;;;;5057368;28;20045;-72
2022/10/14 08:18:59;;;;;;;25.67;17.23;;;11.50;99.90;;;;;;5075133;28;20308;-72
2022/10/14 08:21:26;;;;;;;22.20;16.00;;;11.50;99.90;;;;;;5074375;28;20310;-73
2022/10/14 08:23:53;;;;;;;23.93;17.63;;;11.60;99.90;;;;;;5074553;28;20287;-73
2022/10/14 08:26:38;;;;;;;25.27;17.97;;;11.60;99.90;;;;;;5075043;28;20362;-72
2022/10/14 08:29:09;;;;;;;24.97;16.87;;;11.70;99.90;;;;;;5056819;28;20841;-72
2022/10/14 08:31:35;;;;;;;24.63;17.63;;;11.70;99.90;;;;;;5058127;28;20368;-71
2022/10/14 08:34:00;;;;;;;24.40;18.20;;;11.80;99.90;;;;;;5074806;28;20287;-74
2022/10/14 08:36:26;;;;;;;27.27;17.83;;;11.80;99.90;;;;;;5041462;28;20036;-72
2022/10/14 08:38:53;;;;;;;23.13;16.73;;;11.80;99.90;;;;;;5074986;28;20472;-72
2022/10/14 08:41:35;;;;;;;26.17;17.27;;;11.80;99.90;;;;;;5074691;28;20492;-72
2022/10/14 08:44:13;;;;;;;28.90;18.47;;;11.80;99.90;;;;;;5075082;28;20627;-72
2022/10/14 08:46:51;;;;;;;28.50;17.87;;;11.80;99.90;;;;;;5057014;28;20839;-72
2022/10/14 08:49:31;;;;;;;31.33;20.13;;;11.80;99.90;;;;;;5056741;28;20291;-72
2022/10/14 08:52:07;;;;;;;25.63;17.87;;;11.80;99.90;;;;;;5075119;28;20283;-72
2022/10/14 08:54:39;;;;;;;32.10;21.23;;;11.80;99.90;;;;;;5074957;28;20357;-72
2022/10/14 08:57:12;;;;;;;30.63;19.97;;;11.80;99.90;;;;;;5075104;28;20279;-71
2022/10/14 08:59:40;;;;;;;37.60;21.87;;;11.80;99.90;;;;;;5074879;28;20328;-72
2022/10/14 09:02:28;;;;;;;38.47;23.57;;;11.80;99.90;;;;;;5056412;28;20375;-72
2022/10/14 09:04:54;;;;;;;40.23;23.60;;;11.80;99.90;;;;;;5074212;28;20356;-72
2022/10/14 09:07:20;;;;;;;37.57;22.13;;;11.80;99.90;;;;;;5074237;28;20283;-72
2022/10/14 09:09:53;;;;;;;44.53;24.47;;;11.90;99.90;;;;;;5074172;28;20282;-73
2022/10/14 09:12:27;;;;;;;47.60;25.73;;;11.90;99.90;;;;;;5074123;28;20048;-70
2022/10/14 09:15:20;;;;;;;49.33;25.07;;;11.90;99.90;;;;;;5074814;28;20294;-71
2022/10/14 09:18:04;;;;;;;48.90;25.93;;;12.00;99.90;;;;;;5074013;28;20416;-71
2022/10/14 09:20:30;;;;;;;47.03;25.97;;;12.00;99.90;;;;;;5074705;28;20597;-70
2022/10/14 09:23:10;;;;;;;48.77;25.50;;;12.00;99.90;;;;;;5055825;28;20286;-70
2022/10/14 09:25:41;;;;;;;46.43;24.03;;;12.10;99.90;;;;;;5074678;28;20495;-71
2022/10/14 09:28:07;;;;;;;41.90;23.67;;;12.10;99.90;;;;;;5073833;28;20299;-71
2022/10/14 09:30:36;;;;;;;48.60;25.80;;;12.20;99.90;;;;;;5073810;28;20287;-71
2022/10/14 09:33:04;;;;;;;45.23;24.83;;;12.20;99.90;;;;;;5073842;28;20374;-71
2022/10/14 09:35:35;;;;;;;57.03;27.77;;;12.20;99.90;;;;;;5073781;28;20314;-71
2022/10/14 09:38:00;;;;;;;49.67;26.40;;;12.30;99.90;;;;;;5073715;28;20293;-71
2022/10/14 09:40:38;;;;;;;47.00;26.60;;;12.30;99.90;;;;;;5073594;28;20283;-71
2022/10/14 09:43:09;;;;;;;48.67;26.23;;;12.30;99.90;;;;;;5074110;28;20056;-71
2022/10/14 09:46:01;;;;;;;43.77;24.53;;;12.30;99.90;;;;;;5073521;28;20287;-72
2022/10/14 09:48:48;;;;;;;47.73;24.67;;;12.30;99.90;;;;;;5073583;28;20281;-72
2022/10/14 09:51:32;;;;;;;39.00;21.70;;;12.30;99.90;;;;;;5073483;28;20356;-72
2022/10/14 09:54:02;;;;;;;42.87;22.33;;;12.30;99.90;;;;;;5073332;28;20312;-73
2022/10/14 09:56:36;;;;;;;38.80;21.13;;;12.50;99.90;;;;;;5073350;28;20289;-73
2022/10/14 09:59:04;;;;;;;44.00;22.83;;;12.40;99.90;;;;;;5073920;28;20274;-71
2022/10/14 10:01:40;;;;;;;35.80;20.10;;;12.50;99.90;;;;;;5073293;28;20289;-73
2022/10/14 10:04:32;;;;;;;37.60;20.37;;;12.50;99.90;;;;;;5055328;28;20279;-75
2022/10/14 10:06:59;;;;;;;37.20;20.00;;;12.50;99.90;;;;;;5056445;28;20378;-72
2022/10/14 10:09:25;;;;;;;38.83;20.03;;;12.60;99.90;;;;;;5073297;28;20310;-72
2022/10/14 10:11:52;;;;;;;37.17;19.90;;;12.60;99.90;;;;;;5073280;28;20290;-72
2022/10/14 10:14:32;;;;;;;32.47;18.97;;;12.60;99.90;;;;;;5072874;28;20318;-72
2022/10/14 10:17:07;;;;;;;31.90;18.43;;;12.60;99.90;;;;;;5073228;28;20283;-72
2022/10/14 10:19:47;;;;;;;31.85;18.02;;;12.70;99.90;;;;;;5073271;28;20370;-71
2022/10/14 10:22:18;;;;;;;29.33;17.23;;;12.70;99.90;;;;;;5073987;28;20131;-71
2022/10/14 10:24:45;;;;;;;32.57;18.83;;;12.70;99.90;;;;;;5073671;28;20362;-71
2022/10/14 10:27:20;;;;;;;29.97;17.50;;;12.80;99.90;;;;;;5072922;28;20279;-72
2022/10/14 10:29:45;;;;;;;28.80;16.83;;;12.90;99.90;;;;;;5073257;28;20313;-71
2022/10/14 10:32:37;;;;;;;34.20;17.80;;;12.80;99.90;;;;;;5072766;28;20060;-71
2022/10/14 10:35:06;;;;;;;29.53;16.53;;;12.80;99.90;;;;;;5073620;28;20045;-71
2022/10/14 10:37:49;;;;;;;34.77;17.20;;;12.90;99.90;;;;;;5055663;28;20328;-72
2022/10/14 10:40:26;;;;;;;25.47;15.03;;;;;;;;;;5055681;28;20287;-72
2022/10/14 10:43:06;;;;;;;24.33;14.93;;;;;;;;;;5073878;28;20333;-71
2022/10/14 10:45:41;;;;;;;34.40;17.57;;;;;;;;;;5056836;28;20310;-71
2022/10/14 10:48:34;;;;;;;23.13;13.47;;;;;;;;;;5076845;28;20293;-71
2022/10/14 10:51:07;;;;;;;23.80;13.80;;;;;;;;;;5072637;28;20283;-74
2022/10/14 10:53:36;;;;;;;24.50;13.00;;;;;;;;;;5077072;28;20324;-71
2022/10/14 10:56:18;;;;;;;16.97;11.13;;;;;;;;;;5077161;28;20401;-71
2022/10/14 10:58:44;;;;;;;20.03;11.83;;;;;;;;;;5059375;28;20396;-70
2022/10/14 11:01:10;;;;;;;19.10;10.40;;;;;;;;;;5076562;28;20382;-72
2022/10/14 11:03:39;;;;;;;17.67;10.43;;;;;;;;;;5076579;28;20329;-72
2022/10/14 11:12:01;;;;;;;16.03;10.43;;;;;;;;;;5058562;28;20294;-72
2022/10/14 11:12:05;;;;;;;16.03;9.53;;;;;;;;;;5076475;28;20045;-72
2022/10/14 11:14:34;;;;;;;15.83;9.77;;;;;;;;;;5058683;28;20310;-72
2022/10/14 11:17:03;;;;;;;17.27;9.33;;;;;;;;;;5058411;28;20294;-71
2022/10/14 11:19:34;;;;;;;15.70;9.50;;;;;;;;;;5076326;28;20279;-70
2022/10/14 11:22:03;;;;;;;13.30;8.83;;;;;;;;;;5076011;28;20311;-71
2022/10/14 11:24:57;;;;;;;15.23;9.77;;;;;;;;;;5075898;28;20733;-71
2022/10/14 11:27:27;;;;;;;16.03;9.33;;;;;;;;;;5076741;28;20320;-71
2022/10/14 11:30:12;;;;;;;15.17;8.87;;;;;;;;;;5041330;28;20608;-71
2022/10/14 11:32:38;;;;;;;17.33;9.90;;;;;;;;;;5076612;28;20604;-71
2022/10/14 11:35:21;;;;;;;16.93;9.23;;;;;;;;;;5058905;28;20083;-71
2022/10/14 11:37:47;;;;;;;13.73;8.50;;;;;;;;;;5075999;28;20274;-71
2022/10/14 11:40:17;;;;;;;14.67;9.43;;;;;;;;;;5075909;28;20332;-71
2022/10/14 11:42:46;;;;;;;13.33;8.63;;;;;;;;;;5076747;28;20274;-69
2022/10/14 11:45:12;;;;;;;13.43;8.50;;;;;;;;;;5075774;28;20365;-71
2022/10/14 11:47:39;;;;;;;13.20;8.10;;;;;;;;;;5075748;28;20279;-70
2022/10/14 11:50:20;;;;;;;14.57;8.23;;;;;;;;;;5075744;28;20275;-71
2022/10/14 11:52:50;;;;;;;12.40;7.67;;;;;;;;;;5075670;28;20287;-71
2022/10/14 11:55:18;;;;;;;14.70;8.47;;;;;;;;;;5075576;28;20303;-70
2022/10/14 11:57:44;;;;;;;14.10;8.80;;;;;;;;;;5075497;28;20327;-70
2022/10/14 12:00:19;;;;;;;15.20;8.87;;;13.50;99.90;;;;;;5075543;28;20287;-72
2022/10/14 12:03:31;;;;;;;13.45;8.35;;;13.40;99.90;;;;;;5076392;28;20290;-71
2022/10/14 12:06:35;;;;;;;15.00;8.53;;;13.40;99.90;;;;;;5036760;28;20056;-71
2022/10/14 12:09:23;;;;;;;13.60;8.93;;;13.40;99.90;;;;;;5039189;28;20291;-71
2022/10/14 12:11:54;;;;;;;12.90;8.03;;;13.40;99.90;;;;;;5057565;28;20403;-71
2022/10/14 12:14:43;;;;;;;15.47;8.37;;;13.40;99.90;;;;;;5058498;28;20299;-71
2022/10/14 12:17:36;;;;;;;17.20;9.07;;;13.40;99.90;;;;;;5076022;28;20289;-72
2022/10/14 12:20:13;;;;;;;15.70;8.83;;;13.40;99.90;;;;;;5075214;28;20300;-71
2022/10/14 12:22:39;;;;;;;14.10;8.10;;;13.50;99.90;;;;;;5075154;28;20283;-71
2022/10/14 12:25:10;;;;;;;14.17;7.90;;;13.40;99.90;;;;;;5075114;28;20282;-74
2022/10/14 12:27:37;;;;;;;14.13;8.23;;;13.40;99.90;;;;;;5075595;28;20049;-73
2022/10/14 12:30:03;;;;;;;12.47;7.77;;;;;;;;;;5075521;28;20362;-71
2022/10/14 12:32:30;;;;;;;14.40;7.90;;;;;;;;;;5074975;28;20332;-72
2022/10/14 12:35:00;;;;;;;22.40;8.70;;;;;;;;;;5074634;28;20386;-73
2022/10/14 12:37:36;;;;;;;12.67;7.83;;;;;;;;;;5074525;28;20283;-72
2022/10/14 12:40:04;;;;;;;14.60;7.77;;;;;;;;;;5057449;28;20300;-72
2022/10/14 12:42:32;;;;;;;13.00;7.57;;;;;;;;;;5074614;28;20283;-72
2022/10/14 12:45:00;;;;;;;13.93;7.40;;;;;;;;;;5041178;28;20611;-72
2022/10/14 12:47:33;;;;;;;13.87;7.07;;;;;;;;;;5074869;28;20676;-72
2022/10/14 12:50:16;;;;;;;15.57;6.90;;;;;;;;;;5057016;28;20287;-71
2022/10/14 12:52:46;;;;;;;13.80;8.83;;;;;;;;;;5074528;28;20287;-72
2022/10/14 12:55:20;;;;;;;11.27;7.10;;;;;;;;;;5056548;28;20808;-71
2022/10/14 12:57:57;;;;;;;12.67;6.27;;;;;;;;;;5040831;28;20691;-71
2022/10/14 13:00:23;;;;;;;11.23;6.20;;;;;;;;;;5075210;28;20277;-71
2022/10/14 13:03:09;;;;;;;12.20;6.57;;;;;;;;;;5074358;28;20298;-72
2022/10/14 13:05:36;;;;;;;9.93;5.83;;;;;;;;;;5040317;28;20283;-71
2022/10/14 13:08:24;;;;;;;12.10;5.77;;;;;;;;;;5074056;28;20344;-71
2022/10/14 13:11:01;;;;;;;13.97;6.57;;;;;;;;;;5056476;28;20299;-72
2022/10/14 13:16:20;;;;;;;11.17;5.97;;;;;;;;;;5073933;28;20381;-72
2022/10/14 13:18:46;;;;;;;9.30;5.37;;;;;;;;;;5074141;28;20743;-72
2022/10/14 13:21:26;;;;;;;11.40;6.90;;;;;;;;;;5074488;28;20381;-72
2022/10/14 13:23:54;;;;;;;15.00;7.00;;;;;;;;;;5056969;28;20603;-72
2022/10/14 13:26:38;;;;;;;13.00;6.97;;;;;;;;;;5074479;28;20278;-72
2022/10/14 13:29:14;;;;;;;12.82;6.57;;;;;;;;;;5073655;28;20815;-72
2022/10/14 13:31:40;;;;;;;;;;;;;;;;;;5074264;28;20057;-72
2022/10/14 13:34:33;;;;;;;11.63;7.57;;;14.40;99.90;;;;;;5073716;28;19920;-72
2022/10/14 13:37:13;;;;;;;14.33;8.47;;;14.10;99.90;;;;;;5023638;28;20798;-72
2022/10/14 13:39:39;;;;;;;14.80;8.37;;;14.00;99.90;;;;;;5056124;28;20341;-72
2022/10/14 13:42:04;;;;;;;15.03;8.60;;;14.00;99.90;;;;;;5073718;28;20311;-72
2022/10/14 13:44:30;;;;;;;14.37;8.60;;;14.00;99.90;;;;;;5073649;28;20074;-72
2022/10/14 13:46:56;;;;;;;16.43;9.80;;;14.00;99.90;;;;;;5074230;28;20136;-72
2022/10/14 13:49:49;;;;;;;16.83;9.70;;;14.00;99.90;;;;;;5073539;28;20052;-72
2022/10/14 13:52:23;;;;;;;19.27;9.93;;;14.00;99.90;;;;;;5069463;28;20059;-72
2022/10/14 13:55:03;;;;;;;17.43;10.73;;;14.10;99.90;;;;;;5073573;28;20330;-72
2022/10/14 13:57:29;;;;;;;16.73;10.00;;;14.10;99.90;;;;;;5074083;28;20271;-72
2022/10/14 13:59:54;;;;;;;18.97;10.80;;;14.10;99.90;;;;;;5073522;28;20281;-72
2022/10/14 14:02:26;;;;;;;16.47;10.33;;;14.10;99.90;;;;;;5073540;28;20102;-72
2022/10/14 14:04:55;;;;;;;18.67;10.93;;;14.20;99.90;;;;;;5073697;28;20036;-72
2022/10/14 14:07:26;;;;;;;18.80;10.53;;;14.20;99.90;;;;;;5073800;28;20275;-72
2022/10/14 14:09:54;;;;;;;18.87;12.27;;;;;;;;;;5073354;28;20287;-72